Time;durP1;ratioP1;P1;durP2;ratioP2;P2;SDS_P1;SDS_P2;PMS_P1;PMS_P2;Temp;Humidity;BMP_temperature;BMP_pressure;BME280_temperature;BME280_humidity;BME280_pressure;Samples;Min_cycle;Max_cycle;Signal;HPM_P1;HPM_P2
2023/08/12 00:01:20;;;;;;;3.60;3.33;;;25.50;79.00;;;;;;5052319;28;20216;-74
2023/08/12 00:03:48;;;;;;;4.73;3.30;;;25.40;79.00;;;;;;5052337;28;20209;-74
2023/08/12 00:06:15;;;;;;;3.70;3.10;;;25.40;79.40;;;;;;5051757;28;20704;-74
2023/08/12 00:08:42;;;;;;;4.00;3.60;;;25.40;79.30;;;;;;5051509;28;20229;-75
2023/08/12 00:11:09;;;;;;;3.67;3.37;;;25.40;79.40;;;;;;5052145;28;20600;-74
2023/08/12 00:13:35;;;;;;;3.67;3.23;;;25.30;79.40;;;;;;5052099;28;20234;-74
2023/08/12 00:16:02;;;;;;;3.47;3.17;;;25.30;79.50;;;;;;5052115;28;20213;-73
2023/08/12 00:18:29;;;;;;;3.97;3.23;;;25.30;79.70;;;;;;5051857;28;20609;-74
2023/08/12 00:20:58;;;;;;;3.93;3.53;;;25.30;79.90;;;;;;5033558;28;20258;-74
2023/08/12 00:23:25;;;;;;;3.73;3.23;;;25.20;80.00;;;;;;5051567;28;20233;-73
2023/08/12 00:25:51;;;;;;;3.87;3.47;;;25.20;80.10;;;;;;5052158;28;20547;-74
2023/08/12 00:28:18;;;;;;;3.57;3.27;;;25.20;80.10;;;;;;5051500;28;20251;-73
2023/08/12 00:30:45;;;;;;;3.90;3.43;;;25.20;80.20;;;;;;5051593;28;20210;-74
2023/08/12 00:33:12;;;;;;;5.27;3.50;;;25.20;80.20;;;;;;5052018;28;20217;-74
2023/08/12 00:35:38;;;;;;;4.03;3.30;;;25.20;80.40;;;;;;5051312;28;20662;-74
2023/08/12 00:38:07;;;;;;;3.67;3.37;;;25.10;80.40;;;;;;5051237;28;20684;-74
2023/08/12 00:40:33;;;;;;;3.23;3.00;;;25.20;80.50;;;;;;5051493;28;20257;-73
2023/08/12 00:43:00;;;;;;;3.83;3.47;;;25.10;80.60;;;;;;5060315;28;20208;-75
2023/08/12 00:45:28;;;;;;;4.50;3.80;;;25.10;80.70;;;;;;5071858;28;20229;-74
2023/08/12 00:47:54;;;;;;;4.07;3.70;;;25.10;80.90;;;;;;5071535;28;20582;-74
2023/08/12 00:50:22;;;;;;;4.60;3.40;;;25.10;80.90;;;;;;5071108;28;20306;-74
2023/08/12 00:52:49;;;;;;;3.57;3.27;;;25.10;80.90;;;;;;5071299;28;20200;-74
2023/08/12 00:55:18;;;;;;;4.33;4.00;;;25.10;81.10;;;;;;5071705;28;20211;-74
2023/08/12 00:57:45;;;;;;;3.80;3.50;;;25.10;81.20;;;;;;5071486;28;20217;-74
2023/08/12 01:00:13;;;;;;;5.90;3.17;;;25.10;81.10;;;;;;5071148;28;20229;-74
2023/08/12 01:02:40;;;;;;;4.00;3.33;;;25.10;81.20;;;;;;5071543;28;20212;-74
2023/08/12 01:05:08;;;;;;;5.50;3.67;;;25.10;81.30;;;;;;5071493;28;20207;-75
2023/08/12 01:07:34;;;;;;;4.23;3.87;;;25.10;81.30;;;;;;5071391;28;20239;-74
2023/08/12 01:10:01;;;;;;;3.67;3.33;;;25.10;81.40;;;;;;5071193;28;20235;-74
2023/08/12 01:12:34;;;;;;;4.00;3.70;;;25.10;81.30;;;;;;5071144;28;20231;-74
2023/08/12 01:15:05;;;;;;;5.37;4.33;;;25.10;81.50;;;;;;5071643;28;20609;-74
2023/08/12 01:17:34;;;;;;;4.27;3.77;;;25.10;81.60;;;;;;5070899;28;20228;-74
2023/08/12 01:20:02;;;;;;;4.90;3.40;;;25.10;81.60;;;;;;5069439;28;20209;-74
2023/08/12 01:22:32;;;;;;;4.07;3.73;;;25.10;82.40;;;;;;5071291;28;20233;-74
2023/08/12 01:25:00;;;;;;;4.20;3.80;;;25.10;81.80;;;;;;5071266;28;20216;-73
2023/08/12 01:27:27;;;;;;;4.10;3.70;;;25.10;81.80;;;;;;5071600;28;20585;-75
2023/08/12 01:29:54;;;;;;;4.37;3.97;;;25.10;81.80;;;;;;5071263;28;20236;-74
2023/08/12 01:32:26;;;;;;;4.40;3.80;;;25.10;81.90;;;;;;5074559;28;20205;-75
2023/08/12 01:35:02;;;;;;;4.80;3.80;;;25.00;82.10;;;;;;5075034;28;20189;-74
2023/08/12 01:37:31;;;;;;;3.80;3.47;;;25.10;82.20;;;;;;5074712;28;20240;-74
2023/08/12 01:40:04;;;;;;;4.80;4.17;;;25.00;82.00;;;;;;5074831;28;20201;-74
2023/08/12 01:42:31;;;;;;;4.17;3.73;;;24.90;82.20;;;;;;5071487;28;20189;-74
2023/08/12 01:44:59;;;;;;;4.43;3.90;;;25.00;82.30;;;;;;5054842;28;20570;-75
2023/08/12 01:47:26;;;;;;;4.30;3.90;;;24.90;82.30;;;;;;5054363;28;20386;-75
2023/08/12 01:49:53;;;;;;;5.33;4.10;;;24.80;82.50;;;;;;5054026;28;20244;-74
2023/08/12 01:52:20;;;;;;;4.37;3.97;;;24.90;82.60;;;;;;5054687;28;20214;-72
2023/08/12 01:54:47;;;;;;;4.50;3.93;;;24.90;82.50;;;;;;5054403;28;20229;-73
2023/08/12 01:57:15;;;;;;;4.97;4.47;;;24.90;82.40;;;;;;5054606;28;20194;-73
2023/08/12 01:59:43;;;;;;;4.67;4.13;;;24.90;82.30;;;;;;5054421;28;20197;-75
2023/08/12 02:02:10;;;;;;;6.00;3.90;;;24.90;82.00;;;;;;5054223;28;20308;-74
2023/08/12 02:04:38;;;;;;;4.63;4.20;;;24.80;82.90;;;;;;5054268;28;20574;-73
2023/08/12 02:07:05;;;;;;;4.93;4.43;;;24.90;82.20;;;;;;5054227;28;20677;-74
2023/08/12 02:09:32;;;;;;;4.30;3.90;;;24.90;82.00;;;;;;5053645;28;20236;-73
2023/08/12 02:11:59;;;;;;;4.30;3.90;;;24.90;81.90;;;;;;5054086;28;20229;-74
2023/08/12 02:14:27;;;;;;;5.23;4.07;;;24.90;81.90;;;;;;5054473;28;20761;-74
2023/08/12 02:16:54;;;;;;;4.63;4.17;;;24.90;82.10;;;;;;5053808;28;20241;-74
2023/08/12 02:19:21;;;;;;;4.70;3.97;;;24.90;82.30;;;;;;5053764;28;20209;-74
2023/08/12 02:21:47;;;;;;;5.37;4.40;;;24.90;82.50;;;;;;5054096;28;20256;-74
2023/08/12 02:24:14;;;;;;;4.60;4.10;;;24.90;82.80;;;;;;5054117;28;20206;-74
2023/08/12 02:26:41;;;;;;;7.83;3.80;;;24.80;83.00;;;;;;5054113;28;20309;-74
2023/08/12 02:29:08;;;;;;;4.03;3.63;;;24.80;83.00;;;;;;5053511;28;20226;-74
2023/08/12 02:31:36;;;;;;;4.13;3.63;;;24.80;83.20;;;;;;5053207;28;20201;-74
2023/08/12 02:34:03;;;;;;;4.10;3.70;;;24.90;83.30;;;;;;5053956;28;20228;-75
2023/08/12 02:36:30;;;;;;;4.47;3.87;;;24.90;83.30;;;;;;5053946;28;20202;-75
2023/08/12 02:38:57;;;;;;;4.83;4.33;;;24.90;82.90;;;;;;5053497;28;20606;-74
2023/08/12 02:41:24;;;;;;;4.27;3.80;;;24.90;82.40;;;;;;5053038;28;20210;-75
2023/08/12 02:43:50;;;;;;;4.07;3.67;;;24.90;82.40;;;;;;5068931;28;20255;-74
2023/08/12 02:46:18;;;;;;;4.13;3.73;;;24.90;82.40;;;;;;5055294;28;20204;-73
2023/08/12 02:48:47;;;;;;;4.03;3.63;;;24.90;82.30;;;;;;5073206;28;20588;-73
2023/08/12 02:51:14;;;;;;;4.10;3.70;;;25.00;82.40;;;;;;5073394;28;20212;-74
2023/08/12 02:53:40;;;;;;;3.83;3.43;;;25.00;82.20;;;;;;5073094;28;20668;-74
2023/08/12 02:56:07;;;;;;;4.10;3.80;;;25.00;82.10;;;;;;5073319;28;20189;-74
2023/08/12 02:58:34;;;;;;;4.33;3.53;;;25.00;82.10;;;;;;5073066;28;20200;-73
2023/08/12 03:01:03;;;;;;;4.00;3.60;;;25.00;83.00;;;;;;5072980;28;20213;-73
2023/08/12 03:03:30;;;;;;;5.00;3.57;;;25.00;82.40;;;;;;5073293;28;20289;-74
2023/08/12 03:05:58;;;;;;;4.10;3.70;;;25.00;83.40;;;;;;5073038;28;20211;-74
2023/08/12 03:08:25;;;;;;;3.77;3.40;;;25.00;82.70;;;;;;5072427;28;20697;-74
2023/08/12 03:10:59;;;;;;;6.80;5.03;;;25.00;82.80;;;;;;5072927;28;20573;-73
2023/08/12 03:13:26;;;;;;;5.03;4.00;;;25.00;83.50;;;;;;5072662;28;20193;-75
2023/08/12 03:15:53;;;;;;;4.00;3.70;;;25.00;83.30;;;;;;5072870;28;20225;-73
2023/08/12 03:18:20;;;;;;;4.60;4.20;;;25.00;83.30;;;;;;5072838;28;20205;-74
2023/08/12 03:20:46;;;;;;;4.37;3.97;;;25.00;83.40;;;;;;5072540;28;20326;-74
2023/08/12 03:23:15;;;;;;;5.67;4.30;;;25.00;83.40;;;;;;5072960;28;20208;-75
2023/08/12 03:25:42;;;;;;;6.10;4.27;;;24.90;83.30;;;;;;5072954;28;20583;-74
2023/08/12 03:28:09;;;;;;;4.23;3.83;;;25.00;83.40;;;;;;5072249;28;20205;-73
2023/08/12 03:30:36;;;;;;;7.40;4.37;;;25.00;83.40;;;;;;5072638;28;20196;-74
2023/08/12 03:33:02;;;;;;;4.40;4.00;;;25.00;83.40;;;;;;5072548;28;20209;-74
2023/08/12 03:35:29;;;;;;;4.23;3.73;;;24.90;83.30;;;;;;5072525;28;20297;-73
2023/08/12 03:37:56;;;;;;;5.53;4.30;;;24.90;83.70;;;;;;5072277;28;20225;-74
2023/08/12 03:40:24;;;;;;;4.67;4.20;;;24.90;83.80;;;;;;5072313;28;20212;-73
2023/08/12 03:42:51;;;;;;;4.10;3.80;;;24.90;83.80;;;;;;5064126;28;20321;-73
2023/08/12 03:45:18;;;;;;;4.87;3.83;;;24.80;83.70;;;;;;5052719;28;20206;-75
2023/08/12 03:47:45;;;;;;;4.20;3.80;;;24.90;83.80;;;;;;5052586;28;20774;-75
2023/08/12 03:50:11;;;;;;;4.23;3.83;;;24.90;83.80;;;;;;5051919;28;20217;-74
2023/08/12 03:52:38;;;;;;;4.47;4.07;;;24.90;83.70;;;;;;5052094;28;20217;-73
2023/08/12 03:55:06;;;;;;;4.20;3.80;;;24.90;84.00;;;;;;5052332;28;20205;-74
2023/08/12 03:57:34;;;;;;;4.57;4.17;;;24.90;84.20;;;;;;5016723;28;20216;-74
2023/08/12 04:00:01;;;;;;;4.60;4.20;;;24.90;84.10;;;;;;5052032;28;20221;-74
2023/08/12 04:02:28;;;;;;;5.27;4.00;;;24.90;84.00;;;;;;5052019;28;20209;-73
2023/08/12 04:04:55;;;;;;;7.20;4.07;;;24.90;84.40;;;;;;5052075;28;20230;-75
2023/08/12 04:07:22;;;;;;;4.60;4.20;;;24.80;84.50;;;;;;5052427;28;20587;-74
2023/08/12 04:09:49;;;;;;;4.37;3.97;;;24.80;84.70;;;;;;5051512;28;20336;-74
2023/08/12 04:12:16;;;;;;;4.83;4.37;;;24.80;84.70;;;;;;5051803;28;20205;-74
2023/08/12 04:14:44;;;;;;;4.60;4.10;;;24.80;84.80;;;;;;5051969;28;20240;-73
2023/08/12 04:17:11;;;;;;;5.13;4.23;;;24.80;84.90;;;;;;5052162;28;20194;-74
2023/08/12 04:19:38;;;;;;;4.67;4.13;;;24.80;84.80;;;;;;5051411;28;20240;-74
2023/08/12 04:22:05;;;;;;;4.30;3.90;;;24.80;84.90;;;;;;5051637;28;20186;-74
2023/08/12 04:24:32;;;;;;;4.80;3.53;;;24.80;85.60;;;;;;5051778;28;20212;-74
2023/08/12 04:26:59;;;;;;;5.97;4.00;;;24.80;84.80;;;;;;5051672;28;20206;-74
2023/08/12 04:29:25;;;;;;;7.17;4.60;;;24.90;85.00;;;;;;5051180;28;20229;-74
2023/08/12 04:31:54;;;;;;;5.47;3.83;;;24.90;85.00;;;;;;5051621;28;20235;-74
2023/08/12 04:34:20;;;;;;;4.73;4.33;;;24.90;85.00;;;;;;5051560;28;20209;-74
2023/08/12 04:36:47;;;;;;;3.93;3.57;;;24.90;85.00;;;;;;5051894;28;20240;-74
2023/08/12 04:39:14;;;;;;;5.13;3.83;;;24.90;85.00;;;;;;5051472;28;20220;-74
2023/08/12 04:41:41;;;;;;;4.27;3.93;;;24.90;85.10;;;;;;5051521;28;20236;-74
2023/08/12 04:44:08;;;;;;;5.03;3.63;;;24.90;85.10;;;;;;5069896;28;20228;-73
2023/08/12 04:46:34;;;;;;;4.63;3.90;;;24.90;85.40;;;;;;5071811;28;20227;-74
2023/08/12 04:49:03;;;;;;;6.47;3.97;;;25.00;85.50;;;;;;5071162;28;20252;-74
2023/08/12 04:51:29;;;;;;;5.50;4.00;;;25.00;85.30;;;;;;5071400;28;20208;-74
2023/08/12 04:53:56;;;;;;;5.73;3.87;;;25.00;85.30;;;;;;5071765;28;20228;-74
2023/08/12 04:56:24;;;;;;;5.13;4.30;;;25.00;85.40;;;;;;5071516;28;20209;-74
2023/08/12 04:58:51;;;;;;;7.77;4.80;;;25.00;85.50;;;;;;5071143;28;20224;-72
2023/08/12 05:01:17;;;;;;;7.97;4.90;;;25.00;85.50;;;;;;5071224;28;20205;-74
2023/08/12 05:03:44;;;;;;;6.47;4.83;;;25.00;85.30;;;;;;5071479;28;20319;-75
2023/08/12 05:06:13;;;;;;;6.97;4.73;;;25.00;85.50;;;;;;5073833;28;20700;-74
2023/08/12 05:08:39;;;;;;;4.73;4.23;;;25.00;86.10;;;;;;5075090;28;20225;-74
2023/08/12 05:11:06;;;;;;;3.80;3.50;;;25.10;86.10;;;;;;5074804;28;20541;-74
2023/08/12 05:13:33;;;;;;;5.20;4.17;;;25.00;86.00;;;;;;5075245;28;20211;-75
2023/08/12 05:16:00;;;;;;;4.67;4.27;;;25.00;85.90;;;;;;5075135;28;20679;-73
2023/08/12 05:18:29;;;;;;;4.10;3.70;;;25.10;86.10;;;;;;5075155;28;20205;-74
2023/08/12 05:20:56;;;;;;;3.83;3.53;;;25.10;86.10;;;;;;5075208;28;20205;-74
2023/08/12 05:23:25;;;;;;;5.50;3.93;;;25.10;86.70;;;;;;5075340;28;20250;-74
2023/08/12 05:25:51;;;;;;;5.17;4.67;;;25.10;86.10;;;;;;5074925;28;20237;-74
2023/08/12 05:28:18;;;;;;;4.90;4.00;;;25.10;86.00;;;;;;5074464;28;20283;-75
2023/08/12 05:30:45;;;;;;;4.57;4.17;;;25.10;85.60;;;;;;5074652;28;20243;-74
2023/08/12 05:33:12;;;;;;;6.73;4.50;;;25.10;85.50;;;;;;5074920;28;20312;-74
2023/08/12 05:35:39;;;;;;;4.80;4.03;;;25.10;85.30;;;;;;5074972;28;20233;-73
2023/08/12 05:38:05;;;;;;;4.43;4.03;;;25.00;85.30;;;;;;5074931;28;20215;-74
2023/08/12 05:40:34;;;;;;;5.23;4.43;;;25.00;86.30;;;;;;5074567;28;20201;-73
2023/08/12 05:43:01;;;;;;;4.60;4.20;;;25.00;85.80;;;;;;5065826;28;20189;-74
2023/08/12 05:45:27;;;;;;;5.53;4.27;;;25.10;85.50;;;;;;5054824;28;20628;-74
2023/08/12 05:47:54;;;;;;;4.60;4.20;;;25.10;85.40;;;;;;5054882;28;20201;-73
2023/08/12 05:50:21;;;;;;;4.13;3.53;;;25.10;85.60;;;;;;5054134;28;20700;-74
2023/08/12 05:52:48;;;;;;;4.47;3.93;;;25.20;85.80;;;;;;5054242;28;20212;-73
2023/08/12 05:55:15;;;;;;;8.37;4.23;;;25.20;85.50;;;;;;5054532;28;20205;-74
2023/08/12 05:57:43;;;;;;;4.10;3.40;;;25.30;85.40;;;;;;5054365;28;20754;-74
2023/08/12 06:00:11;;;;;;;4.10;3.70;;;25.30;85.40;;;;;;5054424;28;20232;-74
2023/08/12 06:02:37;;;;;;;4.57;4.17;;;25.40;85.40;;;;;;5054313;28;20252;-74
2023/08/12 06:05:05;;;;;;;4.10;3.70;;;25.40;85.40;;;;;;5054474;28;20208;-75
2023/08/12 06:07:32;;;;;;;3.80;3.50;;;25.50;85.50;;;;;;5054017;28;20217;-74
2023/08/12 06:09:59;;;;;;;4.57;4.17;;;25.50;85.50;;;;;;5054234;28;20206;-74
2023/08/12 06:12:26;;;;;;;4.93;4.20;;;25.50;85.40;;;;;;5053721;28;20212;-75
2023/08/12 06:14:54;;;;;;;6.20;4.67;;;25.50;85.40;;;;;;5054105;28;20224;-74
2023/08/12 06:17:21;;;;;;;5.40;3.90;;;25.50;85.50;;;;;;5053898;28;20212;-74
2023/08/12 06:19:47;;;;;;;5.70;4.50;;;25.50;86.70;;;;;;5053998;28;20288;-73
2023/08/12 06:22:14;;;;;;;4.73;4.33;;;25.50;86.10;;;;;;5053241;28;20228;-75
2023/08/12 06:24:41;;;;;;;7.30;4.60;;;25.50;85.50;;;;;;5054132;28;20225;-75
2023/08/12 06:27:08;;;;;;;4.57;4.17;;;25.50;85.50;;;;;;5053704;28;20219;-73
2023/08/12 06:29:35;;;;;;;4.20;3.80;;;25.50;85.70;;;;;;5053366;28;20237;-73
2023/08/12 06:32:03;;;;;;;4.30;3.90;;;25.50;85.80;;;;;;5053547;28;20225;-73
2023/08/12 06:34:30;;;;;;;4.67;3.97;;;25.60;85.80;;;;;;5053806;28;20210;-74
2023/08/12 06:36:56;;;;;;;4.90;4.23;;;25.70;85.70;;;;;;5053750;28;20190;-74
2023/08/12 06:39:23;;;;;;;5.73;4.23;;;25.80;85.20;;;;;;5053402;28;20221;-74
2023/08/12 06:41:52;;;;;;;5.37;4.07;;;25.80;85.20;;;;;;5053568;28;20293;-73
2023/08/12 06:44:19;;;;;;;7.23;4.60;;;25.80;85.00;;;;;;5073578;28;20429;-74
2023/08/12 06:46:45;;;;;;;4.33;3.93;;;25.90;84.70;;;;;;5073364;28;20229;-74
2023/08/12 06:49:14;;;;;;;4.40;4.00;;;26.00;83.80;;;;;;5073026;28;20217;-73
2023/08/12 06:51:41;;;;;;;5.10;3.90;;;26.10;83.30;;;;;;5073085;28;20235;-75
2023/08/12 06:54:08;;;;;;;5.67;4.80;;;26.10;83.10;;;;;;5073494;28;20206;-75
2023/08/12 06:56:34;;;;;;;4.83;3.97;;;26.20;82.80;;;;;;5073024;28;20252;-73
2023/08/12 06:59:01;;;;;;;4.97;4.57;;;26.20;82.70;;;;;;5073352;28;20211;-74
2023/08/12 07:01:28;;;;;;;5.17;4.00;;;26.30;82.70;;;;;;5073169;28;20228;-74
2023/08/12 07:03:55;;;;;;;4.87;4.20;;;26.30;82.70;;;;;;5073185;28;20189;-73
2023/08/12 07:06:23;;;;;;;4.50;4.10;;;26.40;82.60;;;;;;5073185;28;20462;-73
2023/08/12 07:08:50;;;;;;;4.87;4.33;;;26.40;82.30;;;;;;5073028;28;20216;-74
2023/08/12 07:11:17;;;;;;;5.97;4.80;;;26.50;82.40;;;;;;5072544;28;20226;-74
2023/08/12 07:13:46;;;;;;;5.23;4.13;;;26.50;82.30;;;;;;5073055;28;20211;-74
2023/08/12 07:16:12;;;;;;;4.90;3.67;;;26.50;81.90;;;;;;5073304;28;20225;-73
2023/08/12 07:18:39;;;;;;;4.73;4.33;;;26.60;81.70;;;;;;5071976;28;20225;-73
2023/08/12 07:21:06;;;;;;;7.47;4.77;;;26.70;81.80;;;;;;5052708;28;20213;-75
2023/08/12 07:23:34;;;;;;;5.63;4.20;;;26.80;81.90;;;;;;5052486;28;20233;-74
2023/08/12 07:26:01;;;;;;;6.20;5.03;;;26.90;81.70;;;;;;5052781;28;20206;-73
2023/08/12 07:28:28;;;;;;;4.80;4.03;;;26.90;81.20;;;;;;5052109;28;20432;-73
2023/08/12 07:30:55;;;;;;;5.00;4.30;;;26.90;81.10;;;;;;5052704;28;20207;-74
2023/08/12 07:33:22;;;;;;;5.53;4.77;;;27.00;81.10;;;;;;5052641;28;20213;-74
2023/08/12 07:35:49;;;;;;;4.67;4.13;;;27.00;80.90;;;;;;5052680;28;20267;-73
2023/08/12 07:38:15;;;;;;;5.73;4.87;;;27.00;81.00;;;;;;5052390;28;20212;-73
2023/08/12 07:40:44;;;;;;;4.27;3.80;;;27.10;80.90;;;;;;5052391;28;20296;-74
2023/08/12 07:43:11;;;;;;;6.40;4.13;;;27.30;81.00;;;;;;5062314;28;20206;-74
2023/08/12 07:45:37;;;;;;;7.03;4.93;;;27.30;80.00;;;;;;5072707;28;20597;-74
2023/08/12 07:48:05;;;;;;;4.77;4.37;;;27.30;79.50;;;;;;5072238;28;20306;-75
2023/08/12 07:50:32;;;;;;;5.13;4.10;;;27.30;79.70;;;;;;5072024;28;20245;-74
2023/08/12 07:52:59;;;;;;;5.70;4.50;;;27.40;79.90;;;;;;5054071;28;20309;-74
2023/08/12 07:55:26;;;;;;;5.73;4.47;;;27.50;79.80;;;;;;5072159;28;20212;-73
2023/08/12 07:57:54;;;;;;;5.20;4.60;;;27.50;79.30;;;;;;5072056;28;20237;-75
2023/08/12 08:00:21;;;;;;;4.97;4.20;;;27.60;79.30;;;;;;5072402;28;20203;-74
2023/08/12 08:02:48;;;;;;;4.27;3.77;;;27.60;79.10;;;;;;5072027;28;20228;-73
2023/08/12 08:05:15;;;;;;;4.60;4.20;;;27.70;79.10;;;;;;5071846;28;20207;-73
2023/08/12 08:07:42;;;;;;;6.23;4.17;;;27.80;79.10;;;;;;5072101;28;20258;-74
2023/08/12 08:10:10;;;;;;;6.13;3.87;;;27.90;78.80;;;;;;5072107;28;20228;-74
2023/08/12 08:12:37;;;;;;;5.90;4.83;;;27.90;78.50;;;;;;5071708;28;20232;-74
2023/08/12 08:15:06;;;;;;;5.40;4.40;;;27.90;78.50;;;;;;5071877;28;20204;-74
2023/08/12 08:17:33;;;;;;;5.27;4.77;;;28.00;78.60;;;;;;5071923;28;20592;-74
2023/08/12 08:20:00;;;;;;;6.50;4.77;;;28.00;78.80;;;;;;5072164;28;20221;-73
2023/08/12 08:22:27;;;;;;;6.00;4.23;;;28.10;77.90;;;;;;5076897;28;20208;-74
2023/08/12 08:24:54;;;;;;;6.13;4.30;;;28.20;77.40;;;;;;5078642;28;20255;-75
2023/08/12 08:27:20;;;;;;;4.37;3.97;;;28.20;77.30;;;;;;5072280;28;20200;-75
2023/08/12 08:29:47;;;;;;;3.97;3.67;;;28.30;77.50;;;;;;5071261;28;20291;-74
2023/08/12 08:32:16;;;;;;;6.63;4.20;;;28.40;77.40;;;;;;5071490;28;20233;-74
2023/08/12 08:34:43;;;;;;;6.00;4.27;;;28.50;76.30;;;;;;5072132;28;20233;-74
2023/08/12 08:37:10;;;;;;;5.07;4.23;;;28.50;76.10;;;;;;5071865;28;20575;-74
2023/08/12 08:39:37;;;;;;;4.83;4.40;;;28.50;75.80;;;;;;5071853;28;20263;-74
2023/08/12 08:42:06;;;;;;;5.43;3.87;;;28.60;75.80;;;;;;5074590;28;20207;-73
2023/08/12 08:44:34;;;;;;;5.10;4.57;;;28.60;75.70;;;;;;5055891;28;20219;-74
2023/08/12 08:47:03;;;;;;;5.03;4.53;;;28.70;76.10;;;;;;5055907;28;20196;-74
2023/08/12 08:49:32;;;;;;;4.37;3.97;;;28.80;76.30;;;;;;5055388;28;20205;-74
2023/08/12 08:52:00;;;;;;;5.17;3.90;;;28.90;76.50;;;;;;5055692;28;20260;-74
2023/08/12 08:54:27;;;;;;;4.67;3.80;;;29.00;76.70;;;;;;5055663;28;20299;-75
2023/08/12 08:56:55;;;;;;;5.57;4.53;;;29.10;75.30;;;;;;5055496;28;20683;-74
2023/08/12 08:59:22;;;;;;;6.13;3.90;;;29.20;74.80;;;;;;5055643;28;20209;-74
2023/08/12 09:01:52;;;;;;;6.37;4.40;;;29.40;75.10;;;;;;5055337;28;20589;-74
2023/08/12 09:04:22;;;;;;;4.50;4.10;;;29.40;73.80;;;;;;5055533;28;20216;-74
2023/08/12 09:06:52;;;;;;;5.03;4.50;;;29.50;73.50;;;;;;5055233;28;20322;-73
2023/08/12 09:09:21;;;;;;;4.80;4.40;;;29.70;74.30;;;;;;5055244;28;20235;-74
2023/08/12 09:11:49;;;;;;;4.70;4.30;;;29.90;73.90;;;;;;5054875;28;20690;-74
2023/08/12 09:14:16;;;;;;;4.77;4.20;;;30.00;73.80;;;;;;5055603;28;20281;-74
2023/08/12 09:16:43;;;;;;;6.87;3.97;;;30.20;73.10;;;;;;5054880;28;20225;-74
2023/08/12 09:19:10;;;;;;;5.87;4.43;;;30.30;71.90;;;;;;5055208;28;20316;-75
2023/08/12 09:21:37;;;;;;;4.50;4.10;;;30.30;71.70;;;;;;5055129;28;20212;-74
2023/08/12 09:24:08;;;;;;;5.27;3.63;;;30.40;71.40;;;;;;5054919;28;20591;-73
2023/08/12 09:26:35;;;;;;;5.60;4.33;;;30.50;71.60;;;;;;5055109;28;20769;-74
2023/08/12 09:29:02;;;;;;;6.20;4.07;;;30.50;71.00;;;;;;5054723;28;20245;-73
2023/08/12 09:31:31;;;;;;;5.07;3.97;;;30.50;70.00;;;;;;5054365;28;20228;-74
2023/08/12 09:33:59;;;;;;;4.60;4.20;;;30.60;70.50;;;;;;5054869;28;20233;-75
2023/08/12 09:36:29;;;;;;;4.43;3.90;;;30.50;69.60;;;;;;5055074;28;20472;-74
2023/08/12 09:38:57;;;;;;;5.13;3.93;;;30.50;69.80;;;;;;5054808;28;20233;-74
2023/08/12 09:41:26;;;;;;;4.57;4.13;;;30.60;70.50;;;;;;5055012;28;20297;-73
2023/08/12 09:43:53;;;;;;;5.40;4.20;;;30.60;69.40;;;;;;5070738;28;20230;-74
2023/08/12 09:46:23;;;;;;;4.57;4.13;;;30.60;69.50;;;;;;5074767;28;20196;-74
2023/08/12 09:48:52;;;;;;;4.73;4.23;;;30.60;69.00;;;;;;5074551;28;20200;-74
2023/08/12 09:51:20;;;;;;;5.10;4.40;;;30.70;69.00;;;;;;5074360;28;20216;-75
2023/08/12 09:53:49;;;;;;;4.47;3.80;;;30.80;69.20;;;;;;5074259;28;20653;-74
2023/08/12 09:56:19;;;;;;;4.27;3.87;;;30.90;69.10;;;;;;5074504;28;20669;-74
2023/08/12 09:58:49;;;;;;;4.93;4.00;;;31.10;68.90;;;;;;5074568;28;20208;-74
2023/08/12 10:01:19;;;;;;;4.87;4.17;;;31.20;68.30;;;;;;5074339;28;20240;-74
2023/08/12 10:03:50;;;;;;;5.00;4.40;;;31.30;68.20;;;;;;5074240;28;20201;-74
2023/08/12 10:06:17;;;;;;;4.50;4.10;;;31.40;68.40;;;;;;5074590;28;20225;-73
2023/08/12 10:08:46;;;;;;;4.10;3.70;;;31.60;67.20;;;;;;5073842;28;20715;-74
2023/08/12 10:11:14;;;;;;;6.57;4.10;;;31.50;66.40;;;;;;5073975;28;20228;-74
2023/08/12 10:13:41;;;;;;;6.70;4.00;;;31.60;66.60;;;;;;5074077;28;20206;-75
2023/08/12 10:16:11;;;;;;;4.40;4.00;;;31.60;66.00;;;;;;5074367;28;20233;-73
2023/08/12 10:18:40;;;;;;;4.43;4.03;;;31.60;65.00;;;;;;5074213;28;20593;-74
2023/08/12 10:21:10;;;;;;;5.43;3.93;;;31.70;65.00;;;;;;5073939;28;20226;-74
2023/08/12 10:23:37;;;;;;;6.20;3.87;;;31.70;65.40;;;;;;5073973;28;20219;-74
2023/08/12 10:26:06;;;;;;;3.90;3.57;;;31.90;65.50;;;;;;5073925;28;20296;-74
2023/08/12 10:28:36;;;;;;;4.17;3.77;;;32.00;65.70;;;;;;5073663;28;20234;-74
2023/08/12 10:31:04;;;;;;;7.30;3.87;;;32.10;65.60;;;;;;5073903;28;20213;-75
2023/08/12 10:33:36;;;;;;;3.70;3.40;;;32.30;64.70;;;;;;5073511;28;20762;-75
2023/08/12 10:36:04;;;;;;;3.83;3.30;;;32.40;63.60;;;;;;5074056;28;20194;-73
2023/08/12 10:38:31;;;;;;;4.17;3.87;;;32.50;63.70;;;;;;5074061;28;20312;-75
2023/08/12 10:41:19;;;;;;;5.90;4.30;;;32.50;63.50;;;;;;5073462;28;20710;-74
2023/08/12 10:43:56;;;;;;;4.17;3.73;;;32.40;62.60;;;;;;5058336;28;20202;-74
2023/08/12 10:46:28;;;;;;;6.13;3.77;;;32.30;63.40;;;;;;5053642;28;20211;-74
2023/08/12 10:49:03;;;;;;;4.77;3.90;;;32.30;64.10;;;;;;5053565;28;20227;-74
2023/08/12 10:51:45;;;;;;;4.20;3.80;;;32.10;63.90;;;;;;5053240;28;20217;-74
2023/08/12 10:54:16;;;;;;;4.07;3.67;;;32.00;65.30;;;;;;5053564;28;20190;-74
2023/08/12 10:57:12;;;;;;;5.63;3.73;;;31.90;64.70;;;;;;5053658;28;20306;-75
2023/08/12 10:59:53;;;;;;;6.83;4.03;;;31.60;65.10;;;;;;5053417;28;20307;-74
2023/08/12 11:02:22;;;;;;;4.10;3.57;;;31.30;65.40;;;;;;5052953;28;20186;-73
2023/08/12 11:04:53;;;;;;;4.27;3.87;;;31.30;65.80;;;;;;5052695;28;20226;-75
2023/08/12 11:07:21;;;;;;;4.20;3.80;;;31.10;66.20;;;;;;5053485;28;20658;-74
2023/08/12 11:09:53;;;;;;;3.90;3.50;;;30.80;67.00;;;;;;5052762;28;20229;-74
2023/08/12 11:12:30;;;;;;;4.17;3.77;;;30.70;68.60;;;;;;5053116;28;20220;-74
2023/08/12 11:14:59;;;;;;;5.50;3.93;;;30.60;69.50;;;;;;5052955;28;20320;-74
2023/08/12 11:17:33;;;;;;;5.30;4.27;;;30.60;70.50;;;;;;5035428;28;20740;-75
2023/08/12 11:20:06;;;;;;;4.17;3.77;;;30.40;72.20;;;;;;5052657;28;20233;-74
2023/08/12 11:22:36;;;;;;;5.47;3.90;;;30.30;72.60;;;;;;5052975;28;20182;-73
2023/08/12 11:25:04;;;;;;;4.87;4.37;;;30.10;73.80;;;;;;5052953;28;20233;-74
2023/08/12 11:27:40;;;;;;;5.40;4.53;;;29.90;74.60;;;;;;5052808;28;20301;-72
2023/08/12 11:30:10;;;;;;;5.23;4.67;;;29.90;75.90;;;;;;5052307;28;20247;-74
2023/08/12 11:32:37;;;;;;;5.37;4.53;;;29.90;76.10;;;;;;5052435;28;20320;-74
2023/08/12 11:35:08;;;;;;;4.63;4.20;;;30.00;76.40;;;;;;5052230;28;20665;-73
2023/08/12 11:37:36;;;;;;;4.23;3.83;;;30.10;76.40;;;;;;5052903;28;20276;-73
2023/08/12 11:40:04;;;;;;;7.23;4.97;;;30.10;76.80;;;;;;5052488;28;20677;-73
2023/08/12 11:42:30;;;;;;;5.80;4.33;;;29.90;76.90;;;;;;5056991;28;20266;-73
2023/08/12 11:44:57;;;;;;;4.30;3.53;;;30.00;77.60;;;;;;5072421;28;20291;-74
2023/08/12 11:47:24;;;;;;;4.37;3.97;;;30.00;77.00;;;;;;5072575;28;20441;-74
2023/08/12 11:49:53;;;;;;;5.60;4.40;;;30.00;78.40;;;;;;5072370;28;20217;-74
2023/08/12 11:52:22;;;;;;;5.00;4.00;;;29.90;77.70;;;;;;5072171;28;20239;-74
2023/08/12 11:54:50;;;;;;;4.67;3.80;;;30.00;78.60;;;;;;5072601;28;20224;-74
2023/08/12 11:57:17;;;;;;;4.63;3.87;;;30.20;79.20;;;;;;5072156;28;20233;-73
2023/08/12 11:59:44;;;;;;;5.57;3.80;;;30.30;79.00;;;;;;5072000;28;20225;-73
2023/08/12 12:02:12;;;;;;;4.57;3.87;;;30.20;78.20;;;;;;5072114;28;20380;-74
2023/08/12 12:04:39;;;;;;;4.43;4.03;;;30.40;78.80;;;;;;5072095;28;20223;-73
2023/08/12 12:07:18;;;;;;;4.43;3.73;;;30.50;79.40;;;;;;5072259;28;20240;-73
2023/08/12 12:09:47;;;;;;;4.37;3.97;;;30.70;81.00;;;;;;5071549;28;20213;-73
2023/08/12 12:12:13;;;;;;;4.17;3.77;;;30.90;80.10;;;;;;5071784;28;20227;-74
2023/08/12 12:14:40;;;;;;;4.03;3.63;;;31.10;78.70;;;;;;5071607;28;20201;-74
2023/08/12 12:17:09;;;;;;;4.00;3.60;;;31.30;79.40;;;;;;5071964;28;20295;-73
2023/08/12 12:19:36;;;;;;;4.30;3.90;;;31.40;75.00;;;;;;5071627;28;20213;-73
2023/08/12 12:22:05;;;;;;;5.27;4.03;;;31.50;76.20;;;;;;5072285;28;20327;-74
2023/08/12 12:24:32;;;;;;;4.03;3.63;;;31.70;74.80;;;;;;5071398;28;20240;-74
2023/08/12 12:27:00;;;;;;;4.07;3.67;;;31.80;73.40;;;;;;5072148;28;20201;-74
2023/08/12 12:29:27;;;;;;;4.57;4.03;;;31.90;72.30;;;;;;5071603;28;20256;-74
2023/08/12 12:31:54;;;;;;;6.53;3.90;;;32.00;71.40;;;;;;5071587;28;20225;-75
2023/08/12 12:34:21;;;;;;;4.40;4.00;;;32.10;72.00;;;;;;5071941;28;20232;-73
2023/08/12 12:36:48;;;;;;;4.60;4.20;;;32.30;70.20;;;;;;5071735;28;20670;-73
2023/08/12 12:39:15;;;;;;;3.90;3.57;;;32.30;69.40;;;;;;5071350;28;20244;-74
2023/08/12 12:41:42;;;;;;;4.03;3.67;;;32.10;69.20;;;;;;5071998;28;20288;-74
2023/08/12 12:44:10;;;;;;;4.10;3.37;;;32.20;69.40;;;;;;5052942;28;20213;-74
2023/08/12 12:46:37;;;;;;;3.93;3.60;;;32.10;67.40;;;;;;5051401;28;20632;-75
2023/08/12 12:49:04;;;;;;;4.13;3.73;;;32.00;66.70;;;;;;5051750;28;20218;-74
2023/08/12 12:51:31;;;;;;;3.80;3.50;;;31.70;67.60;;;;;;5051873;28;20222;-74